Time;durP1;ratioP1;P1;durP2;ratioP2;P2;SDS_P1;SDS_P2;PMS_P1;PMS_P2;Temp;Humidity;BMP_temperature;BMP_pressure;BME280_temperature;BME280_humidity;BME280_pressure;Samples;Min_cycle;Max_cycle;Signal;HPM_P1;HPM_P2
2023/10/30 00:01:59;;;;;;;3.03;0.80;;;;;;;14.55;86.19;99482.38;5088503;28;20206;-62
2023/10/30 00:04:27;;;;;;;1.47;0.87;;;;;;;14.64;85.81;99476.47;5088538;28;20211;-62
2023/10/30 00:06:54;;;;;;;1.97;0.83;;;;;;;14.71;85.36;99487.88;5088821;28;20205;-61
2023/10/30 00:09:20;;;;;;;1.93;0.90;;;;;;;14.70;84.50;99481.09;5088668;28;20471;-61
2023/10/30 00:11:49;;;;;;;1.80;0.83;;;;;;;14.61;85.02;99471.59;5088452;28;20229;-61
2023/10/30 00:14:16;;;;;;;3.37;1.37;;;;;;;14.60;85.58;99475.09;5088426;28;20629;-61
2023/10/30 00:16:43;;;;;;;3.00;1.03;;;;;;;14.64;86.23;99480.81;5088489;28;20205;-61
2023/10/30 00:19:09;;;;;;;4.17;1.27;;;;;;;14.58;86.07;99476.97;5088110;28;20209;-61
2023/10/30 00:21:38;;;;;;;0.93;0.77;;;;;;;14.56;85.80;99478.84;5088472;28;20209;-61
2023/10/30 00:24:05;;;;;;;4.70;1.07;;;;;;;14.52;86.90;99472.34;5088178;28;20685;-61
2023/10/30 00:26:32;;;;;;;2.83;1.07;;;;;;;14.52;87.24;99471.53;5088059;28;20201;-62
2023/10/30 00:28:59;;;;;;;3.30;1.10;;;;;;;14.49;87.19;99472.56;5088499;28;20245;-62
2023/10/30 00:31:25;;;;;;;2.57;1.10;;;;;;;14.49;87.66;99477.72;5088295;28;20240;-61
2023/10/30 00:33:53;;;;;;;1.67;0.93;;;;;;;14.46;88.08;99477.97;5088667;28;20199;-61
2023/10/30 00:36:19;;;;;;;1.10;0.90;;;;;;;14.39;88.05;99471.69;5088107;28;20266;-61
2023/10/30 00:38:48;;;;;;;3.77;1.17;;;;;;;14.39;88.59;99471.69;5088419;28;20204;-61
2023/10/30 00:41:15;;;;;;;1.00;0.90;;;;;;;14.38;87.85;99464.91;5088137;28;20216;-61
2023/10/30 00:43:41;;;;;;;1.13;0.73;;;;;;;14.31;87.82;99468.91;5088094;28;20206;-61
2023/10/30 00:46:08;;;;;;;2.00;0.87;;;;;;;14.22;87.77;99467.91;5087857;28;20214;-61
2023/10/30 00:48:35;;;;;;;0.83;0.83;;;;;;;14.18;87.86;99462.19;5088147;28;20204;-61
2023/10/30 00:51:02;;;;;;;6.13;0.97;;;;;;;14.22;88.05;99466.16;5087817;28;20227;-61
2023/10/30 00:53:29;;;;;;;1.47;0.83;;;;;;;14.22;88.26;99466.16;5087785;28;20664;-61
2023/10/30 00:55:57;;;;;;;0.93;0.83;;;;;;;14.19;88.67;99465.59;5091006;28;20210;-61
2023/10/30 00:58:24;;;;;;;1.53;0.93;;;;;;;14.18;88.63;99467.34;5091554;28;20229;-63
2023/10/30 01:00:51;;;;;;;1.23;0.77;;;;;;;14.13;88.24;99459.19;5091934;28;20333;-61
2023/10/30 01:03:19;;;;;;;0.67;0.67;;;;;;;14.11;88.37;99467.94;5091854;28;20265;-61
2023/10/30 01:05:47;;;;;;;1.47;1.00;;;;;;;14.09;88.86;99465.53;5091466;28;20634;-61
2023/10/30 01:08:14;;;;;;;0.60;0.60;;;;;;;14.08;89.21;99463.91;5091813;28;20298;-61
2023/10/30 01:10:41;;;;;;;0.67;0.67;;;;;;;14.03;89.38;99460.88;5091240;28;20229;-61
2023/10/30 01:13:09;;;;;;;1.27;0.90;;;;;;;13.97;90.95;99461.38;5091518;28;20221;-61
2023/10/30 01:15:36;;;;;;;1.17;0.67;;;;;;;13.92;90.39;99463.50;5091270;28;20256;-61
2023/10/30 01:18:03;;;;;;;0.77;0.63;;;;;;;13.90;91.00;99460.22;5091447;28;20203;-61
2023/10/30 01:20:29;;;;;;;0.80;0.70;;;;;;;13.88;91.20;99462.94;5091429;28;20211;-61
2023/10/30 01:22:56;;;;;;;1.23;1.13;;;;;;;13.84;90.94;99456.38;5091206;28;20198;-61
2023/10/30 01:25:23;;;;;;;1.00;0.73;;;;;;;13.85;92.43;99462.38;5091454;28;20238;-61
2023/10/30 01:27:50;;;;;;;0.70;0.60;;;;;;;13.78;91.92;99457.69;5091051;28;20240;-61
2023/10/30 01:30:19;;;;;;;0.73;0.70;;;;;;;13.75;91.54;99457.13;5091226;28;20707;-61
2023/10/30 01:32:45;;;;;;;1.10;1.00;;;;;;;13.68;92.16;99461.94;5091046;28;20231;-61
2023/10/30 01:35:13;;;;;;;4.27;1.10;;;;;;;13.65;91.93;99457.03;5091148;28;20206;-61
2023/10/30 01:37:39;;;;;;;0.70;0.70;;;;;;;13.62;92.47;99457.28;5090779;28;20198;-61
2023/10/30 01:40:07;;;;;;;0.43;0.43;;;;;;;13.62;92.57;99447.00;5090976;28;20263;-61
2023/10/30 01:42:34;;;;;;;0.87;0.80;;;;;;;13.58;92.33;99445.59;5091177;28;20490;-61
2023/10/30 01:45:01;;;;;;;1.63;0.90;;;;;;;13.54;92.42;99444.22;5090157;28;20249;-62
2023/10/30 01:47:30;;;;;;;0.70;0.60;;;;;;;13.52;92.61;99451.22;5089136;28;20206;-61
2023/10/30 01:49:58;;;;;;;1.57;0.90;;;;;;;13.51;92.90;99449.59;5089530;28;20721;-61
2023/10/30 01:52:27;;;;;;;0.70;0.57;;;;;;;13.51;93.19;99454.75;5090723;28;20326;-61
2023/10/30 01:54:54;;;;;;;0.63;0.63;;;;;;;13.49;94.04;99452.28;5090718;28;20676;-61
2023/10/30 01:57:22;;;;;;;1.00;0.87;;;;;;;13.54;93.32;99455.31;5090471;28;20222;-61
2023/10/30 01:59:50;;;;;;;1.03;0.90;;;;;;;13.53;93.68;99453.69;5090824;28;20194;-61
2023/10/30 02:02:19;;;;;;;0.83;0.63;;;;;;;13.49;93.61;99448.91;5090882;28;20282;-61
2023/10/30 02:04:47;;;;;;;0.63;0.63;;;;;;;13.50;93.46;99442.84;5090305;28;20203;-61
2023/10/30 02:07:14;;;;;;;0.60;0.60;;;;;;;13.49;93.27;99448.91;5090483;28;20203;-61
2023/10/30 02:09:42;;;;;;;0.63;0.60;;;;;;;13.43;94.36;99457.09;5090450;28;20224;-61
2023/10/30 02:12:10;;;;;;;4.03;0.90;;;;;;;13.43;94.77;99457.91;5090414;28;20238;-61
2023/10/30 02:14:37;;;;;;;0.50;0.50;;;;;;;13.42;94.49;99460.59;5090196;28;20612;-63
2023/10/30 02:17:04;;;;;;;0.57;0.57;;;;;;;13.25;94.44;99467.00;5090445;28;20201;-60
2023/10/30 02:19:31;;;;;;;1.03;0.80;;;;;;;13.24;94.42;99457.69;5090527;28;20205;-61
2023/10/30 02:21:59;;;;;;;1.10;1.00;;;;;;;12.99;94.97;99458.75;5090499;28;20198;-61
2023/10/30 02:24:26;;;;;;;0.73;0.67;;;;;;;12.72;96.74;99452.19;5090164;28;20206;-63
2023/10/30 02:26:54;;;;;;;1.03;0.90;;;;;;;12.84;96.93;99451.28;5090117;28;20209;-63
2023/10/30 02:29:21;;;;;;;0.87;0.73;;;;;;;12.88;96.92;99457.78;5089865;28;20698;-63
2023/10/30 02:31:50;;;;;;;0.70;0.70;;;;;;;12.90;96.69;99455.94;5090377;28;20221;-63
2023/10/30 02:34:17;;;;;;;1.23;0.87;;;;;;;12.74;97.70;99455.47;5089778;28;20251;-63
2023/10/30 02:36:44;;;;;;;0.83;0.83;;;;;;;12.78;97.77;99449.16;5089921;28;20294;-61
2023/10/30 02:39:11;;;;;;;7.43;1.00;;;;;;;12.76;98.73;99453.59;5089812;28;20208;-61
2023/10/30 02:41:38;;;;;;;0.50;0.50;;;;;;;12.80;99.04;99455.00;5089582;28;20209;-63
2023/10/30 02:44:07;;;;;;;1.03;0.73;;;;;;;12.81;98.77;99451.50;5089531;28;20200;-63
2023/10/30 02:46:33;;;;;;;1.03;0.83;;;;;;;12.83;99.03;99451.41;5089256;28;20595;-62
2023/10/30 02:49:00;;;;;;;0.77;0.70;;;;;;;12.84;99.24;99456.41;5089754;28;20194;-61
2023/10/30 02:51:27;;;;;;;0.70;0.60;;;;;;;12.86;99.07;99458.88;5089561;28;20236;-62
2023/10/30 02:53:54;;;;;;;0.77;0.70;;;;;;;12.88;99.25;99457.78;5089374;28;20205;-62
2023/10/30 02:56:21;;;;;;;1.47;0.70;;;;;;;12.85;98.67;99454.66;5089289;28;20209;-62
2023/10/30 02:58:48;;;;;;;0.70;0.70;;;;;;;12.83;98.20;99448.84;5089545;28;20197;-62
2023/10/30 03:01:16;;;;;;;0.93;0.73;;;;;;;12.81;98.52;99451.50;5089375;28;20229;-62
2023/10/30 03:03:43;;;;;;;0.77;0.73;;;;;;;12.79;98.73;99458.50;5089301;28;20206;-62
2023/10/30 03:06:10;;;;;;;1.20;1.10;;;;;;;12.77;99.71;99455.25;5089165;28;20671;-62
2023/10/30 03:08:36;;;;;;;1.10;0.77;;;;;;;12.76;99.52;99453.59;5089558;28;20198;-62
2023/10/30 03:11:03;;;;;;;2.13;1.03;;;;;;;12.77;99.32;99455.25;5088944;28;20206;-62
2023/10/30 03:13:30;;;;;;;0.97;0.90;;;;;;;12.72;99.10;99447.06;5089154;28;20202;-63
2023/10/30 03:15:59;;;;;;;0.60;0.60;;;;;;;12.69;99.05;99448.13;5088951;28;20591;-62
2023/10/30 03:18:27;;;;;;;2.00;0.90;;;;;;;12.64;99.64;99449.38;5088805;28;20667;-62
2023/10/30 03:20:53;;;;;;;0.47;0.47;;;;;;;12.67;99.63;99449.16;5089212;28;20206;-62
2023/10/30 03:23:20;;;;;;;1.53;0.80;;;;;;;12.64;99.38;99450.19;5089116;28;20202;-62
2023/10/30 03:25:48;;;;;;;1.87;0.90;;;;;;;12.62;99.18;99451.25;5089142;28;20236;-62
2023/10/30 03:28:14;;;;;;;2.17;0.70;;;;;;;12.59;99.24;99447.16;5088916;28;20225;-62
2023/10/30 03:30:41;;;;;;;0.40;0.40;;;;;;;12.57;99.45;99448.22;5088789;28;20705;-62
2023/10/30 03:33:08;;;;;;;0.70;0.70;;;;;;;12.54;100.00;99451.84;5088751;28;20229;-62
2023/10/30 03:35:39;;;;;;;2.73;1.00;;;;;;;12.28;100.00;99458.88;5088948;28;20251;-62
2023/10/30 03:38:06;;;;;;;1.47;0.87;;;;;;;12.18;100.00;99458.72;5088669;28;20205;-62
2023/10/30 03:40:33;;;;;;;0.77;0.70;;;;;;;12.27;100.00;99457.22;5088566;28;20648;-62
2023/10/30 03:43:00;;;;;;;0.87;0.87;;;;;;;12.46;100.00;99452.41;5088971;28;20198;-62
2023/10/30 03:45:27;;;;;;;0.77;0.77;;;;;;;12.51;100.00;99453.78;5088678;28;20210;-62
2023/10/30 03:47:53;;;;;;;1.03;0.90;;;;;;;12.55;100.00;99450.91;5088757;28;20710;-62
2023/10/30 03:50:20;;;;;;;1.00;0.73;;;;;;;12.59;100.00;99457.41;5088896;28;20204;-62
2023/10/30 03:52:48;;;;;;;0.63;0.63;;;;;;;12.60;100.00;99453.94;5089027;28;20229;-62
2023/10/30 03:55:15;;;;;;;0.53;0.53;;;;;;;12.63;100.00;99455.47;5088866;28;20208;-62
2023/10/30 03:57:43;;;;;;;3.37;1.27;;;;;;;12.63;100.00;99453.72;5088963;28;20206;-62
2023/10/30 04:00:11;;;;;;;0.70;0.70;;;;;;;12.65;100.00;99461.28;5088764;28;20204;-62
2023/10/30 04:02:40;;;;;;;1.23;0.83;;;;;;;12.60;100.00;99453.13;5088736;28;20225;-62
2023/10/30 04:05:07;;;;;;;0.77;0.77;;;;;;;12.54;100.00;99459.53;5088732;28;20252;-62
2023/10/30 04:07:34;;;;;;;0.87;0.67;;;;;;;12.50;100.00;99452.97;5088440;28;20206;-62
2023/10/30 04:10:02;;;;;;;1.00;0.87;;;;;;;12.48;100.00;99452.28;5088414;28;20596;-62
2023/10/30 04:12:29;;;;;;;0.93;0.80;;;;;;;12.48;100.00;99449.72;5088270;28;20619;-62
2023/10/30 04:14:56;;;;;;;0.57;0.57;;;;;;;12.49;100.00;99450.53;5088692;28;20244;-62
2023/10/30 04:17:23;;;;;;;4.40;1.40;;;;;;;12.51;100.00;99443.53;5088530;28;20202;-62
2023/10/30 04:19:50;;;;;;;0.70;0.50;;;;;;;12.50;100.00;99444.47;5088356;28;20707;-62
2023/10/30 04:22:17;;;;;;;0.73;0.73;;;;;;;12.45;100.00;99449.97;5088383;28;20204;-62
2023/10/30 04:24:44;;;;;;;0.60;0.50;;;;;;;12.45;100.00;99455.09;5088276;28;20691;-62
2023/10/30 04:27:12;;;;;;;0.73;0.73;;;;;;;12.48;100.00;99459.16;5088307;28;20478;-62
2023/10/30 04:29:40;;;;;;;0.67;0.60;;;;;;;12.48;100.00;99459.16;5089847;28;20204;-62
2023/10/30 04:32:07;;;;;;;0.73;0.73;;;;;;;12.47;100.00;99458.34;5092177;28;20693;-62
2023/10/30 04:34:33;;;;;;;0.50;0.50;;;;;;;12.40;100.00;99460.53;5092176;28;20202;-62
2023/10/30 04:37:00;;;;;;;0.70;0.70;;;;;;;12.35;100.00;99457.50;5092403;28;20220;-62
2023/10/30 04:39:27;;;;;;;3.70;1.10;;;;;;;12.33;100.00;99459.34;5092264;28;20198;-62
2023/10/30 04:41:55;;;;;;;1.63;1.03;;;;;;;12.36;100.00;99464.28;5092006;28;20198;-62
2023/10/30 04:44:24;;;;;;;0.67;0.67;;;;;;;12.38;100.00;99464.97;5092125;28;20260;-62
2023/10/30 04:46:50;;;;;;;1.00;0.63;;;;;;;12.40;100.00;99467.44;5091799;28;20210;-62
2023/10/30 04:49:17;;;;;;;0.60;0.60;;;;;;;12.32;100.00;99467.97;5091997;28;20447;-62
2023/10/30 04:51:44;;;;;;;1.33;0.90;;;;;;;12.31;100.00;99466.34;5091967;28;20234;-62
2023/10/30 04:54:11;;;;;;;0.90;0.73;;;;;;;12.32;100.00;99460.28;5091814;28;20201;-62
2023/10/30 04:56:38;;;;;;;1.03;0.70;;;;;;;12.29;100.00;99464.81;5091788;28;20194;-62
2023/10/30 04:59:04;;;;;;;0.80;0.80;;;;;;;12.33;100.00;99467.03;5091707;28;20198;-62
2023/10/30 05:01:33;;;;;;;1.23;0.90;;;;;;;12.39;100.00;99465.78;5091528;28;20202;-62
2023/10/30 05:03:59;;;;;;;0.80;0.80;;;;;;;12.41;100.00;99462.16;5091994;28;20202;-62
2023/10/30 05:06:26;;;;;;;1.17;0.70;;;;;;;12.45;100.00;99465.34;5091967;28;20213;-62
2023/10/30 05:08:53;;;;;;;0.87;0.87;;;;;;;12.48;100.00;99471.97;5091796;28;20210;-62
2023/10/30 05:11:20;;;;;;;0.70;0.70;;;;;;;12.46;100.00;99466.97;5091538;28;20202;-62
2023/10/30 05:13:46;;;;;;;0.43;0.43;;;;;;;12.50;100.00;99476.06;5091289;28;20773;-62
2023/10/30 05:16:13;;;;;;;1.33;0.57;;;;;;;12.56;100.00;99467.09;5091333;28;20590;-62
2023/10/30 05:18:42;;;;;;;1.30;0.80;;;;;;;12.58;100.00;99475.50;5091771;28;20198;-62
2023/10/30 05:21:09;;;;;;;2.23;0.70;;;;;;;12.57;100.00;99482.38;5091184;28;20206;-62
2023/10/30 05:23:36;;;;;;;1.40;0.97;;;;;;;12.60;100.00;99478.78;5091141;28;20586;-62
2023/10/30 05:26:03;;;;;;;1.40;0.80;;;;;;;12.65;100.00;99477.50;5091125;28;20201;-62
2023/10/30 05:28:29;;;;;;;0.57;0.57;;;;;;;12.69;100.00;99481.47;5091049;28;20690;-62
2023/10/30 05:30:57;;;;;;;1.03;0.70;;;;;;;12.72;100.00;99488.13;5091207;28;20201;-62
2023/10/30 05:33:24;;;;;;;0.97;0.90;;;;;;;12.75;100.00;99493.03;5091198;28;20237;-63
2023/10/30 05:35:55;;;;;;;1.00;0.90;;;;;;;12.74;100.00;99496.53;5091318;28;20201;-62
2023/10/30 05:38:22;;;;;;;1.77;0.90;;;;;;;12.78;100.00;99508.19;5091134;28;20420;-62
2023/10/30 05:40:49;;;;;;;1.63;0.53;;;;;;;12.82;100.00;99499.31;5090751;28;20232;-62
2023/10/30 05:43:16;;;;;;;0.90;0.67;;;;;;;12.95;100.00;99513.81;5091104;28;20684;-62
2023/10/30 05:45:42;;;;;;;1.83;0.77;;;;;;;13.03;100.00;99516.59;5090927;28;20198;-62
2023/10/30 05:48:09;;;;;;;1.03;0.93;;;;;;;13.10;100.00;99517.78;5090082;28;20206;-63
2023/10/30 05:50:36;;;;;;;1.83;0.83;;;;;;;13.20;100.00;99518.69;5090100;28;20213;-62
2023/10/30 05:53:04;;;;;;;2.00;0.87;;;;;;;13.24;100.00;99520.13;5090835;28;20252;-62
2023/10/30 05:55:31;;;;;;;1.03;0.70;;;;;;;13.32;100.00;99517.81;5090463;28;20202;-62
2023/10/30 05:57:58;;;;;;;1.53;1.00;;;;;;;13.48;100.00;99532.03;5090894;28;20198;-63
2023/10/30 06:00:24;;;;;;;1.57;0.87;;;;;;;13.62;100.00;99529.22;5090496;28;20197;-63
2023/10/30 06:02:52;;;;;;;1.47;0.60;;;;;;;13.79;100.00;99536.44;5090485;28;20702;-63
2023/10/30 06:05:19;;;;;;;1.23;0.97;;;;;;;14.01;100.00;99537.31;5090386;28;20199;-63
2023/10/30 06:07:45;;;;;;;1.20;0.83;;;;;;;14.30;100.00;99534.16;5090718;28;20594;-63
2023/10/30 06:10:14;;;;;;;1.80;0.77;;;;;;;14.60;98.16;99536.88;5090603;28;20203;-62
2023/10/30 06:12:41;;;;;;;3.03;0.70;;;;;;;14.91;95.16;99542.03;5090175;28;20243;-63
2023/10/30 06:15:10;;;;;;;1.40;0.83;;;;;;;15.28;97.19;99541.56;5090643;28;20190;-63
2023/10/30 06:17:37;;;;;;;1.13;0.90;;;;;;;15.54;90.68;99547.88;5090395;28;20682;-63
2023/10/30 06:20:06;;;;;;;1.07;0.90;;;;;;;15.91;89.47;99549.06;5090375;28;20228;-63
2023/10/30 06:22:32;;;;;;;1.10;1.00;;;;;;;16.27;89.63;99550.19;5089999;28;20198;-63
2023/10/30 06:25:00;;;;;;;3.10;1.03;;;;;;;16.68;88.79;99558.56;5090134;28;20220;-63
2023/10/30 06:27:28;;;;;;;1.63;1.17;;;;;;;17.07;86.39;99550.75;5090000;28;20822;-63
2023/10/30 06:29:55;;;;;;;3.30;1.00;;;;;;;17.43;86.36;99549.94;5089708;28;20242;-63
2023/10/30 06:32:22;;;;;;;1.20;1.10;;;;;;;17.86;86.87;99545.94;5090409;28;20230;-63
2023/10/30 06:34:49;;;;;;;3.00;1.20;;;;;;;18.19;83.52;99551.41;5089817;28;20203;-63
2023/10/30 06:37:16;;;;;;;1.03;0.90;;;;;;;18.49;77.70;99562.31;5090141;28;20689;-63
2023/10/30 06:39:43;;;;;;;1.23;0.97;;;;;;;18.89;79.57;99553.25;5089696;28;20633;-63
2023/10/30 06:42:09;;;;;;;1.23;1.10;;;;;;;19.19;73.85;99557.94;5089732;28;20208;-63
2023/10/30 06:44:37;;;;;;;2.77;1.33;;;;;;;19.47;73.90;99557.75;5089588;28;20606;-63
2023/10/30 06:47:05;;;;;;;1.03;0.93;;;;;;;19.86;76.98;99557.25;5089860;28;20239;-63
2023/10/30 06:49:31;;;;;;;1.70;1.00;;;;;;;19.93;68.19;99563.44;5089462;28;20203;-63
2023/10/30 06:51:58;;;;;;;1.17;1.07;;;;;;;20.26;69.27;99558.28;5088695;28;20223;-63
2023/10/30 06:54:25;;;;;;;2.73;1.40;;;;;;;20.41;68.34;99559.25;5089394;28;20222;-63
2023/10/30 06:56:52;;;;;;;1.27;1.10;;;;;;;20.70;66.50;99557.97;5089286;28;20594;-63
2023/10/30 06:59:19;;;;;;;1.03;0.97;;;;;;;21.05;66.09;99558.53;5089403;28;20700;-63
2023/10/30 07:01:47;;;;;;;1.27;0.83;;;;;;;21.22;66.75;99560.91;5089679;28;20206;-63
2023/10/30 07:04:16;;;;;;;1.20;1.10;;;;;;;21.45;63.21;99555.81;5089366;28;20202;-63
2023/10/30 07:06:44;;;;;;;1.93;1.10;;;;;;;21.70;60.87;99558.31;5089529;28;20208;-63
2023/10/30 07:09:12;;;;;;;3.70;1.27;;;;;;;21.83;56.41;99563.75;5089344;28;20196;-63
2023/10/30 07:11:40;;;;;;;1.13;1.03;;;;;;;21.85;57.50;99561.81;5089017;28;20585;-63
2023/10/30 07:14:08;;;;;;;1.70;1.08;;;;;;;22.15;59.51;99561.94;5088893;28;20268;-63
2023/10/30 07:16:36;;;;;;;3.07;1.03;;;;;;;22.58;58.11;99557.06;5089149;28;20674;-63
2023/10/30 07:19:04;;;;;;;1.45;1.00;;;;;;;22.90;59.91;99557.75;5089074;28;20567;-63
2023/10/30 07:21:31;;;;;;;1.75;1.10;;;;;;;23.26;57.54;99560.44;5089525;28;20202;-63
2023/10/30 07:23:58;;;;;;;2.72;1.25;;;;;;;23.59;55.71;99563.47;5088993;28;20205;-63
2023/10/30 07:26:24;;;;;;;3.88;1.13;;;;;;;23.88;54.45;99559.16;5089190;28;20237;-63
2023/10/30 07:28:53;;;;;;;1.45;1.20;;;;;;;24.12;55.11;99561.44;5089076;28;20203;-63
2023/10/30 07:31:20;;;;;;;2.15;1.00;;;;;;;24.36;55.42;99565.47;5089097;28;20198;-62
2023/10/30 07:33:49;;;;;;;2.08;1.30;;;;;;;24.26;51.75;99569.38;5089121;28;20225;-63
2023/10/30 07:36:17;;;;;;;1.48;1.10;;;;;;;24.47;50.07;99566.00;5088862;28;20209;-63
2023/10/30 07:38:44;;;;;;;1.58;1.30;;;;;;;24.46;48.98;99573.00;5089324;28;20202;-62
2023/10/30 07:41:11;;;;;;;2.55;1.27;;;;;;;24.33;48.40;99568.44;5088759;28;20205;-62
2023/10/30 07:43:38;;;;;;;1.80;1.30;;;;;;;24.44;49.63;99568.97;5088745;28;20202;-62
2023/10/30 07:46:05;;;;;;;4.63;1.25;;;;;;;24.68;50.83;99571.16;5088484;28;20202;-63
2023/10/30 07:48:31;;;;;;;2.53;1.30;;;;;;;24.81;47.26;99571.28;5088588;28;20186;-62
2023/10/30 07:51:01;;;;;;;7.88;1.30;;;;;;;24.74;47.28;99569.59;5088600;28;20593;-62
2023/10/30 07:53:30;;;;;;;1.42;1.02;;;;;;;24.88;47.24;99571.31;5088547;28;20736;-63
2023/10/30 07:55:57;;;;;;;2.63;1.38;;;;;;;25.21;47.03;99570.69;5088726;28;20194;-62
2023/10/30 07:58:23;;;;;;;2.47;1.27;;;;;;;25.49;46.78;99571.44;5088538;28;20229;-62
2023/10/30 08:00:52;;;;;;;1.05;0.98;;;;;;;25.85;47.48;99565.13;5088556;28;20212;-62
2023/10/30 08:03:18;;;;;;;1.85;1.45;;;;;;;26.19;45.84;99564.16;5089782;28;20198;-62
2023/10/30 08:05:45;;;;;;;2.55;1.40;;;;;;;26.54;45.84;99571.06;5092614;28;20765;-62
2023/10/30 08:08:13;;;;;;;1.80;1.20;;;;;;;26.74;44.96;99566.59;5092732;28;20687;-62
2023/10/30 08:10:42;;;;;;;3.17;1.23;;;;;;;26.68;42.78;99571.88;5092608;28;20267;-62
2023/10/30 08:13:08;;;;;;;3.40;1.40;;;;;;;26.57;41.29;99575.91;5092468;28;20276;-62
2023/10/30 08:15:35;;;;;;;3.38;1.40;;;;;;;26.64;45.04;99568.81;5092468;28;20208;-62
2023/10/30 08:18:05;;;;;;;11.07;2.03;;;;;;;26.46;44.15;99568.59;5092472;28;20682;-62
2023/10/30 08:20:31;;;;;;;8.85;2.22;;;;;;;26.56;42.05;99582.16;5092373;28;20205;-61
2023/10/30 08:22:58;;;;;;;2.38;1.80;;;;;;;26.56;41.11;99582.16;5092347;28;20891;-61
2023/10/30 08:25:25;;;;;;;2.30;1.70;;;;;;;26.37;41.05;99575.88;5092467;28;20210;-61
2023/10/30 08:27:54;;;;;;;2.95;1.60;;;;;;;26.45;43.00;99580.91;5092666;28;20233;-61
2023/10/30 08:30:21;;;;;;;4.15;1.70;;;;;;;26.48;42.67;99577.09;5092283;28;20692;-61
2023/10/30 08:32:48;;;;;;;3.35;1.60;;;;;;;26.60;43.55;99581.53;5092211;28;20265;-61
2023/10/30 08:35:15;;;;;;;2.40;1.70;;;;;;;26.72;43.74;99573.84;5092200;28;20925;-61
2023/10/30 08:37:42;;;;;;;3.40;1.70;;;;;;;26.86;42.63;99575.44;5092392;28;20209;-61
2023/10/30 08:40:10;;;;;;;2.13;1.40;;;;;;;27.32;42.98;99571.13;5092138;28;20206;-63
2023/10/30 08:42:37;;;;;;;2.33;1.45;;;;;;;27.49;42.68;99574.88;5091928;28;20221;-62
2023/10/30 08:45:07;;;;;;;7.20;3.80;;;;;;;27.73;41.65;99575.97;5091857;28;20568;-61
2023/10/30 08:47:34;;;;;;;6.20;3.05;;;;;;;27.96;40.63;99579.91;5091728;28;20216;-61
2023/10/30 08:50:00;;;;;;;2.55;1.80;;;;;;;28.28;40.93;99577.28;5092123;28;20199;-61
2023/10/30 08:52:27;;;;;;;11.68;4.80;;;;;;;28.57;40.29;99576.66;5092293;28;20206;-62
2023/10/30 08:54:54;;;;;;;3.05;2.03;;;;;;;28.56;39.19;99580.28;5091772;28;20230;-61
2023/10/30 08:57:21;;;;;;;4.10;1.77;;;;;;;28.80;40.68;99567.34;5092218;28;20209;-61
2023/10/30 08:59:47;;;;;;;3.00;1.98;;;;;;;28.86;40.73;99572.53;5091500;28;20194;-61
2023/10/30 09:02:16;;;;;;;2.85;2.00;;;;;;;28.91;39.99;99566.59;5091745;28;20202;-62
2023/10/30 09:04:42;;;;;;;3.17;2.10;;;;;;;29.05;39.76;99573.34;5091809;28;20229;-62
2023/10/30 09:07:09;;;;;;;2.80;2.13;;;;;;;29.05;39.32;99568.09;5091453;28;20208;-62
2023/10/30 09:09:36;;;;;;;3.17;1.80;;;;;;;29.18;39.21;99571.63;5091516;28;20237;-62
2023/10/30 09:12:03;;;;;;;2.47;1.92;;;;;;;29.32;38.04;99578.31;5091610;28;20202;-61
2023/10/30 09:14:29;;;;;;;2.58;1.80;;;;;;;29.24;38.68;99576.78;5091182;28;20234;-62
2023/10/30 09:16:56;;;;;;;3.10;1.60;;;;;;;29.20;38.11;99574.81;5091062;28;20209;-62
2023/10/30 09:19:24;;;;;;;3.88;1.85;;;;;;;29.23;39.25;99567.28;5091352;28;20202;-62
2023/10/30 09:21:52;;;;;;;2.20;1.63;;;;;;;29.45;38.48;99562.34;5091579;28;20220;-62
2023/10/30 09:24:19;;;;;;;3.22;2.00;;;;;;;29.67;38.01;99559.25;5091567;28;20202;-62
2023/10/30 09:26:45;;;;;;;4.50;2.20;;;;;;;29.84;37.02;99560.22;5091390;28;20209;-62
2023/10/30 09:29:12;;;;;;;3.70;2.13;;;;;;;29.71;38.17;99555.16;5091329;28;20237;-62
2023/10/30 09:31:39;;;;;;;2.67;1.90;;;;;;;29.84;38.03;99557.56;5091030;28;20202;-62
2023/10/30 09:34:06;;;;;;;3.38;2.08;;;;;;;29.99;38.48;99552.72;5090797;28;20234;-62
2023/10/30 09:36:34;;;;;;;2.58;2.08;;;;;;;30.09;37.08;99546.06;5090994;28;20198;-62
2023/10/30 09:39:01;;;;;;;2.92;1.98;;;;;;;29.86;36.42;99555.53;5091196;28;20225;-62
2023/10/30 09:41:29;;;;;;;3.45;2.20;;;;;;;30.00;37.06;99546.38;5090972;28;20198;-62
2023/10/30 09:43:58;;;;;;;4.78;1.85;;;;;;;30.04;35.82;99543.31;5090740;28;20374;-62
2023/10/30 09:46:29;;;;;;;2.92;1.83;;;;;;;29.98;35.59;99540.53;5091047;28;20208;-62
2023/10/30 09:48:58;;;;;;;4.50;2.00;;;;;;;30.15;37.32;99535.41;5091048;28;20198;-62
2023/10/30 09:51:25;;;;;;;3.05;1.67;;;;;;;30.18;36.71;99529.66;5090905;28;20259;-62
2023/10/30 09:53:55;;;;;;;2.95;1.90;;;;;;;30.45;37.61;99519.50;5090560;28;20710;-62
2023/10/30 09:56:25;;;;;;;3.20;1.60;;;;;;;30.25;35.89;99518.22;5090624;28;20205;-62
2023/10/30 09:58:53;;;;;;;3.28;1.80;;;;;;;30.25;36.99;99513.75;5090413;28;20691;-62
2023/10/30 10:01:20;;;;;;;4.90;2.00;;;;;;;30.34;36.02;99512.41;5090478;28;20671;-62
2023/10/30 10:03:47;;;;;;;2.88;1.90;;;;;;;30.39;35.58;99509.84;5090669;28;20202;-63
2023/10/30 10:06:14;;;;;;;3.75;1.90;;;;;;;30.35;35.81;99503.44;5090911;28;20640;-62
2023/10/30 10:08:43;;;;;;;3.65;1.90;;;;;;;30.21;36.12;99507.34;5090290;28;20204;-62
2023/10/30 10:11:11;;;;;;;3.35;1.77;;;;;;;30.21;38.33;99492.31;5090197;28;20255;-61
2023/10/30 10:13:41;;;;;;;4.05;2.00;;;;;;;30.08;37.98;99495.16;5090135;28;20249;-61
2023/10/30 10:16:08;;;;;;;5.18;1.90;;;;;;;30.20;36.92;99489.91;5090136;28;20198;-62
2023/10/30 10:18:35;;;;;;;3.28;2.20;;;;;;;30.18;37.39;99495.38;5090380;28;20206;-62
2023/10/30 10:21:04;;;;;;;4.45;2.00;;;;;;;30.25;36.44;99487.38;5090154;28;20278;-62
2023/10/30 10:23:33;;;;;;;2.47;1.60;;;;;;;30.41;35.16;99486.69;5090015;28;20573;-62
2023/10/30 10:26:03;;;;;;;2.83;1.70;;;;;;;30.23;34.63;99490.25;5089779;28;20199;-62
2023/10/30 10:28:32;;;;;;;2.25;1.77;;;;;;;28.91;36.44;99484.19;5089085;28;20298;-62
2023/10/30 10:30:59;;;;;;;3.33;1.45;;;;;;;29.54;35.97;99466.16;5089936;28;20201;-62
2023/10/30 10:33:28;;;;;;;3.38;1.60;;;;;;;29.54;38.68;99466.16;5089743;28;20256;-62
2023/10/30 10:35:55;;;;;;;2.08;1.70;;;;;;;29.96;38.67;99462.69;5090088;28;20198;-62
2023/10/30 10:38:22;;;;;;;2.40;1.67;;;;;;;29.87;35.76;99456.16;5089741;28;20694;-62
2023/10/30 10:40:50;;;;;;;3.60;1.98;;;;;;;30.06;38.60;99462.13;5089931;28;20202;-62
2023/10/30 10:43:19;;;;;;;2.80;1.70;;;;;;;30.00;36.98;99461.22;5089774;28;20198;-62
2023/10/30 10:45:48;;;;;;;2.83;1.75;;;;;;;30.20;36.19;99453.75;5089668;28;20279;-62
2023/10/30 10:48:15;;;;;;;5.60;1.80;;;;;;;29.99;36.79;99449.88;5090013;28;20209;-62
2023/10/30 10:50:42;;;;;;;3.10;1.88;;;;;;;30.06;36.94;99451.59;5089702;28;20202;-62
2023/10/30 10:53:11;;;;;;;2.92;2.00;;;;;;;29.54;35.92;99455.59;5089629;28;20202;-62
2023/10/30 10:55:43;;;;;;;6.20;1.85;;;;;;;29.60;36.85;99446.00;5089284;28;20197;-62
2023/10/30 10:58:12;;;;;;;2.53;1.65;;;;;;;29.43;37.46;99439.78;5089198;28;20283;-61
2023/10/30 11:00:48;;;;;;;5.07;1.90;;;;;;;29.31;37.28;99442.38;5089252;28;20210;-62
2023/10/30 11:03:15;;;;;;;3.00;1.77;;;;;;;29.31;38.22;99445.00;5089755;28;20551;-61
2023/10/30 11:05:43;;;;;;;2.28;1.98;;;;;;;29.47;37.00;99444.38;5089339;28;20190;-61
2023/10/30 11:08:46;;;;;;;4.93;2.13;;;;;;;29.56;37.55;99437.75;5089791;28;20226;-62
2023/10/30 11:11:18;;;;;;;3.15;1.92;;;;;;;29.62;38.20;99432.63;5026546;28;20691;-61
2023/10/30 11:13:58;;;;;;;3.38;1.63;;;;;;;29.48;36.31;99435.44;5079154;28;20221;-61
2023/10/30 11:16:29;;;;;;;7.28;2.13;;;;;;;29.24;38.17;99433.78;5089377;28;20201;-61
2023/10/30 11:18:58;;;;;;;2.42;1.70;;;;;;;29.46;37.87;99426.94;5089424;28;20398;-62
2023/10/30 11:21:27;;;;;;;2.72;1.70;;;;;;;29.51;36.90;99428.91;5089166;28;20203;-62
2023/10/30 11:23:56;;;;;;;4.85;2.03;;;;;;;29.60;38.62;99422.28;5089359;28;20206;-62
2023/10/30 11:26:43;;;;;;;3.05;1.88;;;;;;;29.34;37.83;99418.22;5088981;28;20698;-62
2023/10/30 11:29:12;;;;;;;2.88;1.80;;;;;;;29.20;38.33;99408.91;5088720;28;20201;-62
2023/10/30 11:31:54;;;;;;;3.30;1.70;;;;;;;29.19;37.65;99416.00;5088864;28;20190;-62
2023/10/30 11:34:26;;;;;;;1.90;1.45;;;;;;;28.95;38.34;99409.84;5088810;28;20579;-62